createdAt,value
2016-12-27T00:00:19.566Z,31.17
2016-12-27T00:00:47.370Z,31.31
2016-12-27T00:01:15.152Z,31.27
2016-12-27T00:01:42.962Z,31.29
2016-12-27T00:02:10.774Z,31.34
2016-12-27T00:02:38.586Z,31.36
2016-12-27T00:03:06.441Z,31.37
2016-12-27T00:03:34.219Z,31.37
2016-12-27T00:04:02.135Z,31.33
2016-12-27T00:04:29.918Z,31.34
2016-12-27T00:04:57.721Z,31.29
2016-12-27T00:05:25.639Z,31.25
2016-12-27T00:05:53.410Z,31.28
2016-12-27T00:06:21.155Z,31.29
2016-12-27T00:06:48.916Z,31.24
2016-12-27T00:07:16.716Z,31.21
2016-12-27T00:07:44.477Z,31.2
2016-12-27T00:08:12.670Z,31.17
2016-12-27T00:08:40.472Z,31.17
2016-12-27T00:09:08.311Z,31.05
2016-12-27T00:09:36.097Z,31.09
2016-12-27T00:10:03.882Z,31.15
2016-12-27T00:10:31.654Z,31.1
2016-12-27T00:10:59.416Z,31.15
2016-12-27T00:11:27.253Z,31.22
2016-12-27T00:11:55.037Z,31.2
2016-12-27T00:12:22.828Z,31.18
2016-12-27T00:12:50.616Z,31.18
2016-12-27T00:13:18.705Z,31.09
2016-12-27T00:13:46.572Z,31.09
2016-12-27T00:14:14.390Z,31.1
2016-12-27T00:14:42.127Z,31.12
2016-12-27T00:15:09.877Z,31.05
2016-12-27T00:15:37.697Z,31.12
2016-12-27T00:16:05.471Z,31.07
2016-12-27T00:16:33.280Z,31.12
2016-12-27T00:17:01.033Z,31.14
2016-12-27T00:17:28.850Z,31.15
2016-12-27T00:17:56.658Z,31.07
2016-12-27T00:18:24.693Z,31.02
2016-12-27T00:18:52.487Z,31.05
2016-12-27T00:19:20.274Z,31.03
2016-12-27T00:19:48.077Z,31
2016-12-27T00:20:15.953Z,30.97
2016-12-27T00:20:43.686Z,30.99
2016-12-27T00:21:11.487Z,31
2016-12-27T00:21:39.278Z,30.92
2016-12-27T00:22:07.047Z,31.02
2016-12-27T00:22:34.913Z,31.02
2016-12-27T00:23:02.813Z,31.03
2016-12-27T00:23:30.561Z,31.05
2016-12-27T00:23:58.291Z,31
2016-12-27T00:24:26.160Z,30.96
2016-12-27T00:24:54.040Z,30.91
2016-12-27T00:25:21.927Z,30.97
2016-12-27T00:25:49.810Z,30.91
2016-12-27T00:26:17.621Z,30.99
2016-12-27T00:26:45.412Z,30.97
2016-12-27T00:27:13.175Z,31.06
2016-12-27T00:27:40.958Z,30.97
2016-12-27T00:28:09.088Z,31
2016-12-27T00:28:36.867Z,31.02
2016-12-27T00:29:04.670Z,31
2016-12-27T00:29:32.530Z,31.02
2016-12-27T00:30:00.329Z,30.99
2016-12-27T00:30:28.160Z,31.09
2016-12-27T00:30:55.940Z,31.05
2016-12-27T00:31:23.754Z,30.99
2016-12-27T00:31:51.533Z,30.97
2016-12-27T00:32:19.385Z,31
2016-12-27T00:32:47.150Z,30.9
2016-12-27T00:33:15.105Z,30.85
2016-12-27T00:33:43.032Z,30.88
2016-12-27T00:34:10.832Z,30.87
2016-12-27T00:34:38.594Z,30.94
2016-12-27T00:35:06.364Z,30.85
2016-12-27T00:35:34.184Z,30.91
2016-12-27T00:36:02.074Z,30.9
2016-12-27T00:36:29.856Z,30.9
2016-12-27T00:36:57.653Z,30.91
2016-12-27T00:37:25.423Z,30.91
2016-12-27T00:37:53.219Z,30.9
2016-12-27T00:38:21.181Z,30.88
2016-12-27T00:38:49.042Z,30.88
2016-12-27T00:39:16.817Z,30.91
2016-12-27T00:39:44.676Z,30.92
2016-12-27T00:40:12.463Z,30.87
2016-12-27T00:40:40.238Z,30.88
2016-12-27T00:41:08.007Z,30.81
2016-12-27T00:41:35.775Z,30.77
2016-12-27T00:42:03.512Z,30.87
2016-12-27T00:42:31.269Z,30.87
2016-12-27T00:42:59.036Z,30.8
2016-12-27T00:43:27.109Z,30.83
2016-12-27T00:43:54.918Z,30.78
2016-12-27T00:44:22.753Z,30.69
2016-12-27T00:44:50.555Z,30.65
2016-12-27T00:45:18.332Z,30.7
2016-12-27T00:45:46.099Z,30.63
2016-12-27T00:46:13.912Z,30.55
2016-12-27T00:46:41.782Z,30.51
2016-12-27T00:47:09.517Z,30.54
2016-12-27T00:47:37.332Z,30.62
2016-12-27T00:48:05.210Z,30.57
2016-12-27T00:48:33.176Z,30.63
2016-12-27T00:49:00.957Z,30.5
2016-12-27T00:49:28.737Z,30.53
2016-12-27T00:49:56.458Z,30.55
2016-12-27T00:50:24.225Z,30.53
2016-12-27T00:50:52.028Z,30.4
2016-12-27T00:51:19.781Z,30.55
2016-12-27T00:51:47.551Z,30.5
2016-12-27T00:52:15.271Z,30.53
2016-12-27T00:52:43.042Z,30.53
2016-12-27T00:53:10.825Z,30.48
2016-12-27T00:53:38.983Z,30.59
2016-12-27T00:54:06.707Z,30.57
2016-12-27T00:54:34.486Z,30.55
2016-12-27T00:55:02.310Z,30.55
2016-12-27T00:55:30.039Z,30.57
2016-12-27T00:55:57.824Z,30.53
2016-12-27T00:56:25.625Z,30.51
2016-12-27T00:56:53.427Z,30.61
2016-12-27T00:57:21.203Z,30.53
2016-12-27T00:57:49.012Z,30.53
2016-12-27T00:58:16.830Z,30.57
2016-12-27T00:58:44.687Z,30.48
2016-12-27T00:59:12.492Z,30.62
2016-12-27T00:59:40.310Z,30.51
2016-12-27T01:00:08.086Z,30.55
2016-12-27T01:00:35.876Z,30.5
2016-12-27T01:01:03.690Z,30.51
2016-12-27T01:01:31.476Z,30.57
2016-12-27T01:01:59.320Z,30.55
2016-12-27T01:02:27.148Z,30.63
2016-12-27T01:02:54.932Z,30.63
2016-12-27T01:03:22.855Z,30.61
2016-12-27T01:03:50.911Z,30.63
2016-12-27T01:04:18.732Z,30.66
2016-12-27T01:04:46.560Z,30.61
2016-12-27T01:05:14.333Z,30.63
2016-12-27T01:05:42.089Z,30.57
2016-12-27T01:06:09.935Z,30.57
2016-12-27T01:06:37.719Z,30.51
2016-12-27T01:07:05.508Z,30.43
2016-12-27T01:07:33.275Z,30.51
2016-12-27T01:08:01.044Z,30.46
2016-12-27T01:08:28.887Z,30.43
2016-12-27T01:08:56.868Z,30.57
2016-12-27T01:09:24.873Z,30.54
2016-12-27T01:09:52.694Z,30.59
2016-12-27T01:10:20.485Z,30.55
2016-12-27T01:10:48.299Z,30.53
2016-12-27T01:11:16.056Z,30.4
2016-12-27T01:11:43.815Z,30.43
2016-12-27T01:12:11.634Z,30.46
2016-12-27T01:12:39.369Z,30.48
2016-12-27T01:13:07.135Z,30.4
2016-12-27T01:13:34.949Z,30.46
2016-12-27T01:14:02.844Z,30.46
2016-12-27T01:14:30.637Z,30.4
2016-12-27T01:14:58.472Z,30.46
2016-12-27T01:15:26.235Z,30.39
2016-12-27T01:15:53.996Z,30.44
2016-12-27T01:16:21.807Z,30.39
2016-12-27T01:16:49.690Z,30.37
2016-12-27T01:17:17.522Z,30.5
2016-12-27T01:17:45.307Z,30.44
2016-12-27T01:18:13.085Z,30.35
2016-12-27T01:18:40.811Z,30.31
2016-12-27T01:19:08.734Z,30.35
2016-12-27T01:19:36.516Z,30.44
2016-12-27T01:20:04.304Z,30.32
2016-12-27T01:20:32.091Z,30.31
2016-12-27T01:20:59.830Z,30.3
2016-12-27T01:21:27.620Z,30.39
2016-12-27T01:21:55.425Z,30.3
2016-12-27T01:22:23.237Z,30.32
2016-12-27T01:22:51.008Z,30.32
2016-12-27T01:23:18.827Z,30.24
2016-12-27T01:23:46.592Z,30.31
2016-12-27T01:24:14.671Z,30.4
2016-12-27T01:24:42.448Z,30.35
2016-12-27T01:25:10.240Z,30.39
2016-12-27T01:25:38.017Z,30.32
2016-12-27T01:26:05.880Z,30.39
2016-12-27T01:26:33.695Z,30.32
2016-12-27T01:27:01.476Z,30.27
2016-12-27T01:27:29.250Z,30.15
2016-12-27T01:27:57.027Z,30.25
2016-12-27T01:28:24.766Z,30.24
2016-12-27T01:28:52.563Z,30.28
2016-12-27T01:29:20.520Z,30.27
2016-12-27T01:29:48.318Z,30.27
2016-12-27T01:30:16.111Z,30.25
2016-12-27T01:30:43.871Z,30.23
2016-12-27T01:31:11.680Z,30.23
2016-12-27T01:31:39.431Z,30.18
2016-12-27T01:32:07.224Z,30.24
2016-12-27T01:32:35.031Z,30.16
2016-12-27T01:33:02.827Z,30.28
2016-12-27T01:33:30.737Z,30.25
2016-12-27T01:33:58.714Z,30.12
2016-12-27T01:34:26.617Z,30.18
2016-12-27T01:34:54.359Z,30.16
2016-12-27T01:35:22.139Z,30.19
2016-12-27T01:35:49.938Z,30.21
2016-12-27T01:36:17.704Z,30.12
2016-12-27T01:36:45.488Z,30.27
2016-12-27T01:37:13.365Z,30.21
2016-12-27T01:37:41.126Z,30.25
2016-12-27T01:38:08.851Z,30.39
2016-12-27T01:38:36.767Z,30.34
2016-12-27T01:39:04.660Z,30.35
2016-12-27T01:39:32.485Z,30.34
2016-12-27T01:40:00.291Z,30.44
2016-12-27T01:40:28.163Z,30.35
2016-12-27T01:40:55.878Z,30.39
2016-12-27T01:41:23.650Z,30.34
2016-12-27T01:41:51.401Z,30.39
2016-12-27T01:42:19.233Z,30.35
2016-12-27T01:42:47.091Z,30.35
2016-12-27T01:43:14.861Z,30.34
2016-12-27T01:43:42.646Z,30.34
2016-12-27T01:44:14.801Z,30.32
2016-12-27T01:44:42.595Z,30.32
2016-12-27T01:45:10.346Z,30.32
2016-12-27T01:45:38.117Z,30.31
2016-12-27T01:46:05.915Z,30.32
2016-12-27T01:46:33.688Z,30.27
2016-12-27T01:47:01.486Z,30.3
2016-12-27T01:47:29.236Z,30.34
2016-12-27T01:47:57.010Z,30.32
2016-12-27T01:48:24.806Z,30.32
2016-12-27T01:48:52.577Z,30.35
2016-12-27T01:49:20.640Z,30.3
2016-12-27T01:49:48.529Z,30.25
2016-12-27T01:50:16.308Z,30.27
2016-12-27T01:50:44.344Z,30.28
2016-12-27T01:51:12.176Z,30.27
2016-12-27T01:51:39.967Z,30.24
2016-12-27T01:52:07.773Z,30.21
2016-12-27T01:52:35.561Z,30.21
2016-12-27T01:53:03.332Z,30.16
2016-12-27T01:53:31.122Z,30.15
2016-12-27T01:53:58.968Z,30.21
2016-12-27T01:54:27.087Z,30.23
2016-12-27T01:54:54.881Z,30.27
2016-12-27T01:55:22.668Z,30.13
2016-12-27T01:55:50.480Z,30.18
2016-12-27T01:56:18.248Z,30.24
2016-12-27T01:56:46.045Z,30.23
2016-12-27T01:57:13.832Z,30.16
2016-12-27T01:57:41.660Z,30.16
2016-12-27T01:58:09.490Z,30.15
2016-12-27T01:58:37.366Z,30.09
2016-12-27T01:59:05.185Z,30.08
2016-12-27T01:59:33.248Z,30.03
2016-12-27T02:00:01.010Z,30.08
2016-12-27T02:00:28.809Z,30.06
2016-12-27T02:00:56.692Z,30.05
2016-12-27T02:01:24.488Z,30
2016-12-27T02:01:52.283Z,30
2016-12-27T02:02:20.084Z,29.95
2016-12-27T02:02:47.885Z,30.05
2016-12-27T02:03:15.701Z,30
2016-12-27T02:03:43.453Z,30.06
2016-12-27T02:04:11.236Z,30.1
2016-12-27T02:04:39.259Z,30.08
2016-12-27T02:05:07.099Z,30
2016-12-27T02:05:34.876Z,29.98
2016-12-27T02:06:02.650Z,29.97
2016-12-27T02:06:30.470Z,29.94
2016-12-27T02:06:58.325Z,30
2016-12-27T02:07:26.176Z,29.94
2016-12-27T02:07:53.995Z,29.97
2016-12-27T02:08:21.765Z,29.98
2016-12-27T02:08:49.524Z,30
2016-12-27T02:09:17.415Z,29.93
2016-12-27T02:09:45.147Z,30.05
2016-12-27T02:10:12.941Z,30.06
2016-12-27T02:10:40.717Z,30.08
2016-12-27T02:11:08.545Z,30.02
2016-12-27T02:11:36.335Z,30.09
2016-12-27T02:12:04.148Z,30.08
2016-12-27T02:12:31.989Z,30.08
2016-12-27T02:12:59.779Z,30.1
2016-12-27T02:13:27.563Z,30.02
2016-12-27T02:13:55.396Z,30.02
2016-12-27T02:14:23.491Z,30.05
2016-12-27T02:14:51.257Z,30.02
2016-12-27T02:15:19.048Z,30.12
2016-12-27T02:15:46.787Z,30.12
2016-12-27T02:16:14.612Z,30.1
2016-12-27T02:16:42.410Z,30.1
2016-12-27T02:17:10.328Z,30.12
2016-12-27T02:17:38.074Z,30.05
2016-12-27T02:18:05.938Z,30.09
2016-12-27T02:18:33.711Z,30.06
2016-12-27T02:19:01.534Z,30.1
2016-12-27T02:19:29.421Z,30.08
2016-12-27T02:19:57.201Z,30
2016-12-27T02:20:25.014Z,30.05
2016-12-27T02:20:52.816Z,30.06
2016-12-27T02:21:20.624Z,30.08
2016-12-27T02:21:48.406Z,30.12
2016-12-27T02:22:16.289Z,30.03
2016-12-27T02:22:44.042Z,30.09
2016-12-27T02:23:11.802Z,30.08
2016-12-27T02:23:39.579Z,30.1
2016-12-27T02:24:07.339Z,30.09
2016-12-27T02:24:35.390Z,30.09
2016-12-27T02:25:03.187Z,30.03
2016-12-27T02:25:31.116Z,30.05
2016-12-27T02:25:58.995Z,29.98
2016-12-27T02:26:26.794Z,30.02
2016-12-27T02:26:54.545Z,29.93
2016-12-27T02:27:22.354Z,30.05
2016-12-27T02:27:50.167Z,29.97
2016-12-27T02:28:18.064Z,29.97
2016-12-27T02:28:45.951Z,29.94
2016-12-27T02:29:13.701Z,29.9
2016-12-27T02:29:41.711Z,29.93
2016-12-27T02:30:09.511Z,29.82
2016-12-27T02:30:37.293Z,29.9
2016-12-27T02:31:05.091Z,29.86
2016-12-27T02:31:32.870Z,29.93
2016-12-27T02:32:00.646Z,29.81
2016-12-27T02:32:28.371Z,29.94
2016-12-27T02:32:56.150Z,29.87
2016-12-27T02:33:23.994Z,29.88
2016-12-27T02:33:51.772Z,29.87
2016-12-27T02:34:19.624Z,29.9
2016-12-27T02:34:47.732Z,29.86
2016-12-27T02:35:15.560Z,29.94
2016-12-27T02:35:43.367Z,29.97
2016-12-27T02:36:11.132Z,29.94
2016-12-27T02:36:38.950Z,30
2016-12-27T02:37:06.768Z,30.02
2016-12-27T02:37:34.562Z,29.97
2016-12-27T02:38:02.342Z,29.97
2016-12-27T02:38:30.148Z,29.94
2016-12-27T02:38:57.942Z,30.02
2016-12-27T02:39:25.819Z,29.81
2016-12-27T02:39:53.694Z,29.81
2016-12-27T02:40:21.472Z,29.9
2016-12-27T02:40:49.267Z,29.87
2016-12-27T02:41:17.075Z,29.84
2016-12-27T02:41:44.827Z,29.76
2016-12-27T02:42:12.643Z,29.78
2016-12-27T02:42:40.501Z,29.9
2016-12-27T02:43:08.357Z,29.72
2016-12-27T02:43:36.138Z,29.87
2016-12-27T02:44:03.956Z,29.87
2016-12-27T02:44:31.791Z,29.87
2016-12-27T02:44:59.752Z,29.78
2016-12-27T02:45:27.489Z,29.76
2016-12-27T02:45:55.271Z,29.73
2016-12-27T02:46:23.069Z,29.75
2016-12-27T02:46:50.968Z,29.65
2016-12-27T02:47:18.764Z,29.72
2016-12-27T02:47:46.614Z,29.69
2016-12-27T02:48:14.401Z,29.75
2016-12-27T02:48:42.224Z,29.73
2016-12-27T02:49:10.028Z,29.78
2016-12-27T02:49:37.798Z,29.81
2016-12-27T02:50:05.685Z,29.76
2016-12-27T02:50:33.484Z,29.75
2016-12-27T02:51:01.343Z,29.78
2016-12-27T02:51:29.136Z,29.87
2016-12-27T02:51:56.918Z,29.84
2016-12-27T02:52:24.718Z,29.84
2016-12-27T02:52:52.491Z,29.72
2016-12-27T02:53:20.276Z,29.72
2016-12-27T02:53:48.031Z,29.76
2016-12-27T02:54:15.818Z,29.78
2016-12-27T02:54:43.600Z,29.87
2016-12-27T02:55:11.811Z,29.76
2016-12-27T02:55:39.614Z,29.76
2016-12-27T02:56:07.352Z,29.76
2016-12-27T02:56:35.097Z,29.91
2016-12-27T02:57:02.894Z,29.84
2016-12-27T02:57:30.717Z,29.87
2016-12-27T02:57:58.525Z,29.78
2016-12-27T02:58:26.307Z,29.69
2016-12-27T02:58:54.320Z,29.66
2016-12-27T02:59:22.187Z,29.68
2016-12-27T02:59:50.063Z,29.73
2016-12-27T03:00:18.267Z,29.63
2016-12-27T03:00:46.263Z,29.65
2016-12-27T03:01:14.070Z,29.65
2016-12-27T03:01:41.813Z,29.63
2016-12-27T03:02:10.074Z,29.63
2016-12-27T03:02:37.840Z,29.57
2016-12-27T03:03:05.671Z,29.53
2016-12-27T03:03:33.471Z,29.54
2016-12-27T03:04:01.365Z,29.6
2016-12-27T03:04:29.156Z,29.49
2016-12-27T03:04:57.060Z,29.51
2016-12-27T03:05:24.853Z,29.47
2016-12-27T03:05:52.612Z,29.49
2016-12-27T03:06:20.436Z,29.54
2016-12-27T03:06:48.215Z,29.49
2016-12-27T03:07:16.017Z,29.53
2016-12-27T03:07:43.796Z,29.35
2016-12-27T03:08:11.560Z,29.42
2016-12-27T03:08:39.322Z,29.35
2016-12-27T03:09:07.176Z,29.36
2016-12-27T03:09:34.954Z,29.47
2016-12-27T03:10:02.996Z,29.5
2016-12-27T03:10:30.765Z,29.45
2016-12-27T03:10:58.538Z,29.36
2016-12-27T03:11:26.292Z,29.49
2016-12-27T03:11:54.100Z,29.47
2016-12-27T03:12:21.880Z,29.53
2016-12-27T03:12:49.612Z,29.56
2016-12-27T03:13:17.385Z,29.53
2016-12-27T03:13:45.126Z,29.56
2016-12-27T03:14:12.922Z,29.51
2016-12-27T03:14:40.697Z,29.53
2016-12-27T03:15:08.608Z,29.54
2016-12-27T03:15:36.457Z,29.54
2016-12-27T03:16:04.258Z,29.51
2016-12-27T03:16:32.013Z,29.56
2016-12-27T03:16:59.803Z,29.47
2016-12-27T03:17:27.595Z,29.45
2016-12-27T03:17:55.408Z,29.47
2016-12-27T03:18:23.232Z,29.47
2016-12-27T03:18:51.027Z,29.47
2016-12-27T03:19:18.862Z,29.44
2016-12-27T03:19:46.679Z,29.36
2016-12-27T03:20:14.773Z,29.35
2016-12-27T03:20:42.522Z,29.35
2016-12-27T03:21:10.349Z,29.41
2016-12-27T03:21:38.149Z,29.39
2016-12-27T03:22:05.924Z,29.38
2016-12-27T03:22:33.765Z,29.44
2016-12-27T03:23:01.575Z,29.41
2016-12-27T03:23:29.381Z,29.39
2016-12-27T03:23:57.137Z,29.45
2016-12-27T03:24:24.972Z,29.44
2016-12-27T03:24:52.738Z,29.44
2016-12-27T03:25:20.731Z,29.51
2016-12-27T03:25:48.516Z,29.39
2016-12-27T03:26:16.346Z,29.38
2016-12-27T03:26:44.181Z,29.45
2016-12-27T03:27:12.016Z,29.39
2016-12-27T03:27:39.771Z,29.42
2016-12-27T03:28:07.560Z,29.29
2016-12-27T03:28:35.336Z,29.42
2016-12-27T03:29:03.106Z,29.41
2016-12-27T03:29:30.917Z,29.38
2016-12-27T03:29:58.784Z,29.41
2016-12-27T03:30:26.748Z,29.45
2016-12-27T03:30:54.528Z,29.36
2016-12-27T03:31:22.337Z,29.45
2016-12-27T03:31:50.139Z,29.41
2016-12-27T03:32:17.904Z,29.45
2016-12-27T03:32:45.732Z,29.5
2016-12-27T03:33:13.525Z,29.44
2016-12-27T03:33:41.253Z,29.49
2016-12-27T03:34:09.054Z,29.49
2016-12-27T03:34:36.896Z,29.45
2016-12-27T03:35:04.705Z,29.42
2016-12-27T03:35:32.846Z,29.36
2016-12-27T03:36:00.648Z,29.36
2016-12-27T03:36:28.463Z,29.35
2016-12-27T03:36:56.260Z,29.31
2016-12-27T03:37:24.140Z,29.24
2016-12-27T03:37:51.895Z,29.17
2016-12-27T03:38:19.747Z,29.22
2016-12-27T03:38:47.516Z,29.16
2016-12-27T03:39:15.312Z,29.24
2016-12-27T03:39:43.112Z,29.27
2016-12-27T03:40:10.861Z,29.22
2016-12-27T03:40:38.777Z,29.32
2016-12-27T03:41:06.566Z,29.38
2016-12-27T03:41:34.338Z,29.31
2016-12-27T03:42:02.100Z,29.27
2016-12-27T03:42:29.909Z,29.34
2016-12-27T03:42:57.693Z,29.24
2016-12-27T03:43:25.493Z,29.26
2016-12-27T03:43:53.331Z,29.2
2016-12-27T03:44:21.147Z,29.17
2016-12-27T03:44:48.991Z,29.16
2016-12-27T03:45:16.740Z,29.26
2016-12-27T03:45:44.655Z,29.08
2016-12-27T03:46:12.451Z,29.1
2016-12-27T03:46:40.296Z,29.1
2016-12-27T03:47:08.114Z,29.1
2016-12-27T03:47:35.872Z,29.16
2016-12-27T03:48:03.653Z,29.1
2016-12-27T03:48:31.399Z,29.16
2016-12-27T03:48:59.197Z,29.1
2016-12-27T03:49:27.025Z,29.1
2016-12-27T03:49:54.824Z,29.1
2016-12-27T03:50:22.642Z,29.04
2016-12-27T03:50:50.605Z,29.17
2016-12-27T03:51:18.397Z,29.16
2016-12-27T03:51:46.151Z,29.1
2016-12-27T03:52:13.900Z,29.13
2016-12-27T03:52:41.698Z,29.17
2016-12-27T03:53:09.498Z,29.12
2016-12-27T03:53:37.295Z,29.12
2016-12-27T03:54:05.089Z,29.2
2016-12-27T03:54:32.875Z,29.16
2016-12-27T03:55:00.669Z,29.05
2016-12-27T03:55:28.452Z,29.12
2016-12-27T03:55:56.525Z,29.1
2016-12-27T03:56:24.289Z,29.12
2016-12-27T03:56:52.068Z,29.1
2016-12-27T03:57:19.861Z,29.12
2016-12-27T03:57:47.675Z,29.2
2016-12-27T03:58:15.453Z,29.23
2016-12-27T03:58:43.233Z,29.26
2016-12-27T03:59:11.097Z,29.23
2016-12-27T03:59:38.869Z,29.23
2016-12-27T04:00:06.688Z,29.19
2016-12-27T04:00:34.485Z,29.16
2016-12-27T04:01:02.613Z,29.16
2016-12-27T04:01:30.429Z,29.23
2016-12-27T04:01:58.229Z,29.24
2016-12-27T04:02:25.996Z,29.29
2016-12-27T04:02:53.770Z,29.31
2016-12-27T04:03:21.549Z,29.27
2016-12-27T04:03:49.349Z,29.23
2016-12-27T04:04:17.174Z,29.16
2016-12-27T04:04:44.969Z,29.19
2016-12-27T04:05:12.775Z,29.2
2016-12-27T04:05:40.562Z,29.12
2016-12-27T04:06:08.655Z,29.17
2016-12-27T04:06:36.439Z,29.1
2016-12-27T04:07:04.305Z,29.1
2016-12-27T04:07:32.091Z,29.05
2016-12-27T04:07:59.873Z,29.05
2016-12-27T04:08:27.650Z,29.1
2016-12-27T04:08:55.449Z,29.08
2016-12-27T04:09:23.273Z,29.04
2016-12-27T04:09:51.051Z,29.02
2016-12-27T04:10:18.838Z,29.02
2016-12-27T04:10:46.832Z,29.01
2016-12-27T04:11:14.613Z,29.12
2016-12-27T04:11:42.389Z,29.02
2016-12-27T04:12:10.134Z,29.07
2016-12-27T04:12:37.874Z,29.05
2016-12-27T04:13:05.660Z,29.1
2016-12-27T04:13:33.441Z,29.02
2016-12-27T04:14:01.222Z,29.02
2016-12-27T04:14:28.949Z,29.07
2016-12-27T04:14:56.670Z,29.07
2016-12-27T04:15:24.426Z,29.08
2016-12-27T04:15:52.494Z,29.07
2016-12-27T04:16:20.260Z,29.04
2016-12-27T04:16:48.083Z,29.07
2016-12-27T04:17:15.931Z,29.05
2016-12-27T04:17:43.691Z,29.07
2016-12-27T04:18:11.492Z,28.97
2016-12-27T04:18:39.218Z,28.98
2016-12-27T04:19:06.958Z,28.97
2016-12-27T04:19:34.760Z,29.01
2016-12-27T04:20:02.552Z,29.08
2016-12-27T04:20:30.361Z,29.07
2016-12-27T04:20:58.316Z,29.04
2016-12-27T04:21:26.128Z,29.1
2016-12-27T04:21:53.954Z,29.07
2016-12-27T04:22:21.779Z,29.05
2016-12-27T04:22:49.537Z,29.01
2016-12-27T04:23:17.323Z,29.07
2016-12-27T04:23:45.186Z,29.04
2016-12-27T04:24:13.030Z,29.04
2016-12-27T04:24:40.793Z,29.02
2016-12-27T04:25:08.625Z,29.08
2016-12-27T04:25:36.407Z,29.07
2016-12-27T04:26:04.459Z,29.02
2016-12-27T04:26:32.285Z,29.1
2016-12-27T04:27:00.113Z,28.98
2016-12-27T04:27:27.937Z,29.05
2016-12-27T04:27:55.698Z,29.01
2016-12-27T04:28:23.479Z,29.01
2016-12-27T04:28:51.257Z,28.93
2016-12-27T04:29:19.078Z,28.94
2016-12-27T04:29:46.908Z,28.98
2016-12-27T04:30:14.680Z,29.05
2016-12-27T04:30:42.454Z,29.02
2016-12-27T04:31:10.638Z,29.01
2016-12-27T04:31:38.414Z,29.04
2016-12-27T04:32:06.242Z,29.04
2016-12-27T04:32:34.074Z,29.05
2016-12-27T04:33:01.842Z,29.05
2016-12-27T04:33:29.613Z,28.98
2016-12-27T04:33:57.399Z,29.07
2016-12-27T04:34:25.184Z,29.04
2016-12-27T04:34:52.910Z,29.01
2016-12-27T04:35:20.704Z,29.04
2016-12-27T04:35:48.475Z,28.98
2016-12-27T04:36:16.508Z,28.94
2016-12-27T04:36:44.333Z,28.96
2016-12-27T04:37:12.103Z,28.94
2016-12-27T04:37:39.878Z,28.89
2016-12-27T04:38:07.701Z,28.98
2016-12-27T04:38:35.462Z,28.89
2016-12-27T04:39:03.218Z,28.93
2016-12-27T04:39:31.007Z,28.89
2016-12-27T04:39:58.767Z,28.85
2016-12-27T04:40:26.556Z,28.91
2016-12-27T04:40:54.384Z,28.97
2016-12-27T04:41:22.406Z,28.89
2016-12-27T04:41:50.155Z,28.96
2016-12-27T04:42:17.931Z,28.91
2016-12-27T04:42:45.695Z,28.97
2016-12-27T04:43:13.485Z,28.96
2016-12-27T04:43:41.256Z,28.91
2016-12-27T04:44:09.049Z,28.98
2016-12-27T04:44:36.827Z,28.91
2016-12-27T04:45:04.657Z,28.96
2016-12-27T04:45:32.468Z,28.89
2016-12-27T04:46:00.201Z,28.93
2016-12-27T04:46:28.066Z,28.96
2016-12-27T04:46:55.884Z,29.01
2016-12-27T04:47:23.663Z,28.98
2016-12-27T04:47:51.429Z,28.96
2016-12-27T04:48:19.317Z,28.88
2016-12-27T04:48:47.072Z,28.89
2016-12-27T04:49:14.844Z,28.85
2016-12-27T04:49:42.655Z,28.84
2016-12-27T04:50:10.452Z,28.84
2016-12-27T04:50:38.261Z,28.82
2016-12-27T04:51:06.027Z,28.78
2016-12-27T04:51:33.928Z,28.72
2016-12-27T04:52:01.710Z,28.72
2016-12-27T04:52:29.488Z,28.66
2016-12-27T04:52:57.301Z,28.64
2016-12-27T04:53:25.106Z,28.57
2016-12-27T04:53:52.902Z,28.56
2016-12-27T04:54:20.700Z,28.51
2016-12-27T04:54:48.482Z,28.6
2016-12-27T04:55:16.247Z,28.52
2016-12-27T04:55:44.019Z,28.54
2016-12-27T04:56:11.763Z,28.49
2016-12-27T04:56:39.686Z,28.54
2016-12-27T04:57:07.435Z,28.6
2016-12-27T04:57:35.205Z,28.59
2016-12-27T04:58:03.041Z,28.59
2016-12-27T04:58:30.871Z,28.57
2016-12-27T04:58:58.665Z,28.59
2016-12-27T04:59:26.449Z,28.63
2016-12-27T04:59:54.183Z,28.57
2016-12-27T05:00:21.985Z,28.63
2016-12-27T05:00:49.770Z,28.66
2016-12-27T05:01:17.570Z,28.67
2016-12-27T05:01:45.565Z,28.69
2016-12-27T05:02:13.396Z,28.66
2016-12-27T05:02:41.220Z,28.7
2016-12-27T05:03:09.001Z,28.67
2016-12-27T05:03:36.797Z,28.7
2016-12-27T05:04:04.576Z,28.74
2016-12-27T05:04:32.511Z,28.74
2016-12-27T05:05:00.245Z,28.7
2016-12-27T05:05:28.002Z,28.69
2016-12-27T05:05:55.769Z,28.64
2016-12-27T05:06:23.548Z,28.63
2016-12-27T05:06:51.672Z,28.63
2016-12-27T05:07:19.435Z,28.56
2016-12-27T05:07:47.231Z,28.59
2016-12-27T05:08:15.015Z,28.52
2016-12-27T05:08:42.825Z,28.49
2016-12-27T05:09:10.582Z,28.48
2016-12-27T05:09:38.371Z,28.51
2016-12-27T05:10:06.126Z,28.51
2016-12-27T05:10:34.024Z,28.44
2016-12-27T05:11:01.805Z,28.51
2016-12-27T05:11:29.615Z,28.54
2016-12-27T05:11:57.720Z,28.56
2016-12-27T05:12:25.486Z,28.57
2016-12-27T05:12:53.308Z,28.48
2016-12-27T05:13:21.077Z,28.57
2016-12-27T05:13:48.860Z,28.52
2016-12-27T05:14:16.683Z,28.56
2016-12-27T05:14:44.446Z,28.54
2016-12-27T05:15:12.367Z,28.49
2016-12-27T05:15:40.116Z,28.48
2016-12-27T05:16:07.871Z,28.49
2016-12-27T05:16:35.627Z,28.57
2016-12-27T05:17:03.591Z,28.51
2016-12-27T05:17:31.363Z,28.59
2016-12-27T05:17:59.111Z,28.56
2016-12-27T05:18:26.939Z,28.52
2016-12-27T05:18:54.726Z,28.56
2016-12-27T05:19:22.532Z,28.59
2016-12-27T05:19:50.364Z,28.56
2016-12-27T05:20:18.141Z,28.51
2016-12-27T05:20:45.904Z,28.54
2016-12-27T05:21:13.686Z,28.57
2016-12-27T05:21:41.473Z,28.54
2016-12-27T05:22:09.355Z,28.57
2016-12-27T05:22:37.135Z,28.6
2016-12-27T05:23:04.897Z,28.69
2016-12-27T05:23:32.617Z,28.64
2016-12-27T05:24:00.525Z,28.62
2016-12-27T05:24:28.267Z,28.64
2016-12-27T05:24:56.088Z,28.6
2016-12-27T05:25:23.881Z,28.54
2016-12-27T05:25:51.674Z,28.62
2016-12-27T05:26:19.481Z,28.56
2016-12-27T05:26:47.282Z,28.59
2016-12-27T05:27:15.500Z,28.64
2016-12-27T05:27:43.278Z,28.66
2016-12-27T05:28:11.094Z,28.66
2016-12-27T05:28:38.836Z,28.64
2016-12-27T05:29:06.589Z,28.67
2016-12-27T05:29:34.359Z,28.63
2016-12-27T05:30:02.149Z,28.7
2016-12-27T05:30:29.941Z,28.6
2016-12-27T05:30:57.755Z,28.57
2016-12-27T05:31:25.553Z,28.62
2016-12-27T05:31:53.330Z,28.56
2016-12-27T05:32:21.448Z,28.59
2016-12-27T05:32:49.267Z,28.62
2016-12-27T05:33:17.031Z,28.57
2016-12-27T05:33:44.811Z,28.59
2016-12-27T05:34:12.573Z,28.56
2016-12-27T05:34:40.345Z,28.59
2016-12-27T05:35:08.062Z,28.62
2016-12-27T05:35:35.812Z,28.62
2016-12-27T05:36:03.603Z,28.56
2016-12-27T05:36:31.315Z,28.56
2016-12-27T05:36:59.119Z,28.54
2016-12-27T05:37:27.133Z,28.56
2016-12-27T05:37:54.894Z,28.48
2016-12-27T05:38:22.660Z,28.49
2016-12-27T05:38:50.441Z,28.49
2016-12-27T05:39:18.283Z,28.45
2016-12-27T05:39:46.084Z,28.51
2016-12-27T05:40:13.905Z,28.38
2016-12-27T05:40:41.647Z,28.38
2016-12-27T05:41:09.421Z,28.35
2016-12-27T05:41:37.194Z,28.37
2016-12-27T05:42:04.974Z,28.35
2016-12-27T05:42:32.869Z,28.38
2016-12-27T05:43:00.601Z,28.3
2016-12-27T05:43:28.497Z,28.33
2016-12-27T05:43:56.221Z,28.41
2016-12-27T05:44:24.007Z,28.38
2016-12-27T05:44:51.785Z,28.41
2016-12-27T05:45:19.665Z,28.35
2016-12-27T05:45:47.427Z,28.41
2016-12-27T05:46:15.217Z,28.39
2016-12-27T05:46:43.001Z,28.37
2016-12-27T05:47:10.790Z,28.3
2016-12-27T05:47:38.899Z,28.32
2016-12-27T05:48:06.654Z,28.29
2016-12-27T05:48:34.428Z,28.1
2016-12-27T05:49:02.220Z,28.17
2016-12-27T05:49:30.036Z,28.19
2016-12-27T05:49:57.796Z,28.25
2016-12-27T05:50:25.592Z,28.17
2016-12-27T05:50:53.350Z,28.15
2016-12-27T05:51:21.181Z,28.15
2016-12-27T05:51:48.989Z,28.11
2016-12-27T05:52:16.926Z,28.14
2016-12-27T05:52:44.680Z,28.1
2016-12-27T05:53:12.507Z,28.1
2016-12-27T05:53:40.240Z,28.1
2016-12-27T05:54:08.014Z,28.08
2016-12-27T05:54:35.758Z,28.1
2016-12-27T05:55:03.501Z,28.04
2016-12-27T05:55:31.268Z,28.04
2016-12-27T05:55:59.139Z,28.14
2016-12-27T05:56:26.903Z,28.14
2016-12-27T05:56:54.674Z,28.11
2016-12-27T05:57:22.734Z,28.15
2016-12-27T05:57:50.499Z,28.14
2016-12-27T05:58:18.307Z,28.23
2016-12-27T05:58:46.111Z,28.02
2016-12-27T05:59:13.874Z,28.14
2016-12-27T05:59:41.666Z,28.15
2016-12-27T06:00:09.437Z,28.22